sensor_id;sensor_type;location;lat;lon;timestamp;P1;durP1;ratioP1;P2;durP2;ratioP2
60372;SDS011;46216;52.220;5.134;2022-11-12T16:25:46;88.57;;;79.25;;
60372;SDS011;46216;52.220;5.134;2022-11-12T16:28:12;75.55;;;67.40;;
60372;SDS011;46216;52.220;5.134;2022-11-12T16:30:39;69.43;;;61.30;;
60372;SDS011;46216;52.220;5.134;2022-11-12T16:33:05;72.50;;;64.63;;
60372;SDS011;46216;52.220;5.134;2022-11-12T16:35:32;51.25;;;42.85;;
60372;SDS011;46216;52.220;5.134;2022-11-12T16:37:59;32.78;;;26.08;;
60372;SDS011;46216;52.220;5.134;2022-11-12T16:40:26;24.77;;;20.77;;
60372;SDS011;46216;52.220;5.134;2022-11-12T16:42:53;22.13;;;18.58;;
60372;SDS011;46216;52.220;5.134;2022-11-12T16:45:19;18.75;;;13.73;;
60372;SDS011;46216;52.220;5.134;2022-11-12T16:47:50;17.48;;;13.13;;
60372;SDS011;46216;52.220;5.134;2022-11-12T16:50:25;14.88;;;11.98;;
60372;SDS011;46216;52.220;5.134;2022-11-12T16:53:31;13.00;;;10.20;;
60372;SDS011;46216;52.220;5.134;2022-11-12T16:56:37;12.32;;;10.23;;
60372;SDS011;46216;52.220;5.134;2022-11-12T16:59:58;18.20;;;10.05;;
60372;SDS011;46216;52.220;5.134;2022-11-12T17:03:05;13.80;;;10.75;;
60372;SDS011;46216;52.220;5.134;2022-11-12T17:06:21;17.35;;;11.15;;
60372;SDS011;46216;52.220;5.134;2022-11-12T17:09:37;16.80;;;10.60;;
60372;SDS011;46216;52.220;5.134;2022-11-12T17:12:03;14.20;;;10.65;;
60372;SDS011;46216;52.220;5.134;2022-11-12T17:14:28;14.40;;;10.38;;
60372;SDS011;46216;52.220;5.134;2022-11-12T17:16:54;14.40;;;10.00;;
60372;SDS011;46216;52.220;5.134;2022-11-12T17:19:19;13.55;;;10.90;;
60372;SDS011;46216;52.220;5.134;2022-11-12T17:21:44;14.73;;;10.45;;
60372;SDS011;46216;52.220;5.134;2022-11-12T17:24:09;13.20;;;10.30;;
60372;SDS011;46216;52.220;5.134;2022-11-12T17:26:35;14.75;;;10.63;;
60372;SDS011;46216;52.220;5.134;2022-11-12T17:29:00;14.48;;;11.23;;
60372;SDS011;46216;52.220;5.134;2022-11-12T17:31:25;13.43;;;10.05;;
60372;SDS011;46216;52.220;5.134;2022-11-12T17:33:51;15.63;;;11.88;;
60372;SDS011;46216;52.220;5.134;2022-11-12T17:36:18;18.70;;;13.18;;
60372;SDS011;46216;52.220;5.134;2022-11-12T17:38:46;18.35;;;12.30;;
60372;SDS011;46216;52.220;5.134;2022-11-12T17:41:12;16.10;;;11.10;;
60372;SDS011;46216;52.220;5.134;2022-11-12T17:43:37;17.33;;;12.55;;
60372;SDS011;46216;52.220;5.134;2022-11-12T17:46:04;16.77;;;13.70;;
60372;SDS011;46216;52.220;5.134;2022-11-12T17:48:31;18.13;;;13.93;;
60372;SDS011;46216;52.220;5.134;2022-11-12T17:51:07;17.80;;;14.27;;
60372;SDS011;46216;52.220;5.134;2022-11-12T17:53:35;16.35;;;13.60;;
60372;SDS011;46216;52.220;5.134;2022-11-12T17:56:03;17.80;;;14.25;;
60372;SDS011;46216;52.220;5.134;2022-11-12T17:58:29;22.15;;;17.60;;
60372;SDS011;46216;52.220;5.134;2022-11-12T18:01:01;25.77;;;17.20;;
60372;SDS011;46216;52.220;5.134;2022-11-12T18:03:28;21.10;;;17.77;;
60372;SDS011;46216;52.220;5.134;2022-11-12T18:05:54;22.73;;;17.67;;
60372;SDS011;46216;52.220;5.134;2022-11-12T18:08:24;21.63;;;17.75;;
60372;SDS011;46216;52.220;5.134;2022-11-12T18:10:49;23.15;;;18.27;;
60372;SDS011;46216;52.220;5.134;2022-11-12T18:13:15;28.23;;;18.50;;
60372;SDS011;46216;52.220;5.134;2022-11-12T18:15:40;27.38;;;18.67;;
60372;SDS011;46216;52.220;5.134;2022-11-12T18:18:06;27.25;;;21.75;;
60372;SDS011;46216;52.220;5.134;2022-11-12T18:20:31;28.35;;;22.17;;
60372;SDS011;46216;52.220;5.134;2022-11-12T18:22:58;25.73;;;19.98;;
60372;SDS011;46216;52.220;5.134;2022-11-12T18:25:24;28.55;;;21.70;;
60372;SDS011;46216;52.220;5.134;2022-11-12T18:27:49;29.67;;;21.42;;
60372;SDS011;46216;52.220;5.134;2022-11-12T18:30:15;30.00;;;21.77;;
60372;SDS011;46216;52.220;5.134;2022-11-12T18:32:40;27.50;;;20.83;;
60372;SDS011;46216;52.220;5.134;2022-11-12T18:35:06;26.52;;;21.20;;
60372;SDS011;46216;52.220;5.134;2022-11-12T18:37:32;26.52;;;21.13;;
60372;SDS011;46216;52.220;5.134;2022-11-12T18:39:58;33.10;;;23.52;;
60372;SDS011;46216;52.220;5.134;2022-11-12T18:42:23;31.00;;;23.15;;
60372;SDS011;46216;52.220;5.134;2022-11-12T18:44:49;27.08;;;22.60;;
60372;SDS011;46216;52.220;5.134;2022-11-12T18:47:14;32.75;;;23.95;;
60372;SDS011;46216;52.220;5.134;2022-11-12T18:49:39;35.72;;;25.83;;
60372;SDS011;46216;52.220;5.134;2022-11-12T18:52:05;33.33;;;26.40;;
60372;SDS011;46216;52.220;5.134;2022-11-12T18:54:31;34.70;;;26.92;;
60372;SDS011;46216;52.220;5.134;2022-11-12T18:56:56;31.65;;;25.15;;
60372;SDS011;46216;52.220;5.134;2022-11-12T18:59:21;35.45;;;27.52;;
60372;SDS011;46216;52.220;5.134;2022-11-12T19:01:48;35.38;;;27.10;;
60372;SDS011;46216;52.220;5.134;2022-11-12T19:04:13;33.08;;;26.52;;
60372;SDS011;46216;52.220;5.134;2022-11-12T19:06:39;31.40;;;24.58;;
60372;SDS011;46216;52.220;5.134;2022-11-12T19:09:04;30.77;;;23.83;;
60372;SDS011;46216;52.220;5.134;2022-11-12T19:11:34;28.45;;;21.25;;
60372;SDS011;46216;52.220;5.134;2022-11-12T19:13:59;28.45;;;21.58;;
60372;SDS011;46216;52.220;5.134;2022-11-12T19:16:24;33.42;;;23.42;;
60372;SDS011;46216;52.220;5.134;2022-11-12T19:18:50;26.75;;;21.98;;
60372;SDS011;46216;52.220;5.134;2022-11-12T19:21:20;28.88;;;22.58;;
60372;SDS011;46216;52.220;5.134;2022-11-12T19:23:47;30.85;;;21.50;;
60372;SDS011;46216;52.220;5.134;2022-11-12T19:26:13;28.20;;;21.25;;
60372;SDS011;46216;52.220;5.134;2022-11-12T19:28:40;26.45;;;20.48;;
60372;SDS011;46216;52.220;5.134;2022-11-12T19:31:27;29.98;;;21.98;;
60372;SDS011;46216;52.220;5.134;2022-11-12T19:33:54;48.50;;;32.78;;
60372;SDS011;46216;52.220;5.134;2022-11-12T19:36:21;29.67;;;21.58;;
60372;SDS011;46216;52.220;5.134;2022-11-12T19:38:55;28.83;;;20.60;;
60372;SDS011;46216;52.220;5.134;2022-11-12T19:41:22;28.58;;;21.58;;
60372;SDS011;46216;52.220;5.134;2022-11-12T19:43:48;28.95;;;22.33;;
60372;SDS011;46216;52.220;5.134;2022-11-12T19:46:13;29.50;;;22.65;;
60372;SDS011;46216;52.220;5.134;2022-11-12T19:48:39;40.25;;;27.77;;
60372;SDS011;46216;52.220;5.134;2022-11-12T19:51:05;35.85;;;24.63;;
60372;SDS011;46216;52.220;5.134;2022-11-12T19:53:39;28.10;;;21.35;;
60372;SDS011;46216;52.220;5.134;2022-11-12T19:56:08;27.35;;;19.90;;
60372;SDS011;46216;52.220;5.134;2022-11-12T19:58:34;25.67;;;20.25;;
60372;SDS011;46216;52.220;5.134;2022-11-12T20:03:32;23.00;;;18.20;;
60372;SDS011;46216;52.220;5.134;2022-11-12T20:06:02;23.23;;;19.10;;
60372;SDS011;46216;52.220;5.134;2022-11-12T20:08:29;25.42;;;19.20;;
60372;SDS011;46216;52.220;5.134;2022-11-12T20:10:55;23.77;;;19.45;;
60372;SDS011;46216;52.220;5.134;2022-11-12T20:13:20;24.25;;;18.73;;
60372;SDS011;46216;52.220;5.134;2022-11-12T20:15:45;22.33;;;18.05;;
60372;SDS011;46216;52.220;5.134;2022-11-12T20:18:11;24.58;;;19.50;;
60372;SDS011;46216;52.220;5.134;2022-11-12T20:20:36;28.25;;;19.88;;
60372;SDS011;46216;52.220;5.134;2022-11-12T20:23:01;24.50;;;19.25;;
60372;SDS011;46216;52.220;5.134;2022-11-12T20:25:27;23.83;;;18.73;;
60372;SDS011;46216;52.220;5.134;2022-11-12T20:27:52;29.30;;;19.52;;
60372;SDS011;46216;52.220;5.134;2022-11-12T20:30:17;27.52;;;20.77;;
60372;SDS011;46216;52.220;5.134;2022-11-12T20:32:42;33.53;;;25.15;;
60372;SDS011;46216;52.220;5.134;2022-11-12T20:35:08;31.52;;;24.45;;
60372;SDS011;46216;52.220;5.134;2022-11-12T20:37:33;32.55;;;24.85;;
60372;SDS011;46216;52.220;5.134;2022-11-12T20:39:58;30.30;;;23.30;;
60372;SDS011;46216;52.220;5.134;2022-11-12T20:42:24;28.38;;;22.10;;
60372;SDS011;46216;52.220;5.134;2022-11-12T20:44:49;29.70;;;20.85;;
60372;SDS011;46216;52.220;5.134;2022-11-12T20:47:14;28.30;;;19.77;;
60372;SDS011;46216;52.220;5.134;2022-11-12T20:49:39;25.83;;;19.45;;
60372;SDS011;46216;52.220;5.134;2022-11-12T20:52:05;25.88;;;20.35;;
60372;SDS011;46216;52.220;5.134;2022-11-12T20:54:30;27.58;;;19.98;;
60372;SDS011;46216;52.220;5.134;2022-11-12T20:56:55;25.83;;;19.30;;
60372;SDS011;46216;52.220;5.134;2022-11-12T20:59:21;28.92;;;21.05;;
60372;SDS011;46216;52.220;5.134;2022-11-12T21:01:47;30.50;;;20.50;;
60372;SDS011;46216;52.220;5.134;2022-11-12T21:04:12;26.90;;;20.15;;
60372;SDS011;46216;52.220;5.134;2022-11-12T21:06:38;25.77;;;19.85;;
60372;SDS011;46216;52.220;5.134;2022-11-12T21:09:03;26.73;;;20.05;;
60372;SDS011;46216;52.220;5.134;2022-11-12T21:11:28;24.77;;;18.98;;
60372;SDS011;46216;52.220;5.134;2022-11-12T21:13:54;23.48;;;17.95;;
60372;SDS011;46216;52.220;5.134;2022-11-12T21:16:19;25.80;;;18.10;;
60372;SDS011;46216;52.220;5.134;2022-11-12T21:18:45;24.85;;;17.58;;
60372;SDS011;46216;52.220;5.134;2022-11-12T21:21:11;25.63;;;17.75;;
60372;SDS011;46216;52.220;5.134;2022-11-12T21:23:40;22.48;;;17.38;;
60372;SDS011;46216;52.220;5.134;2022-11-12T21:26:17;22.42;;;17.05;;
60372;SDS011;46216;52.220;5.134;2022-11-12T21:28:44;22.92;;;17.92;;
60372;SDS011;46216;52.220;5.134;2022-11-12T21:31:15;25.33;;;17.02;;
60372;SDS011;46216;52.220;5.134;2022-11-12T21:33:43;23.63;;;18.23;;
60372;SDS011;46216;52.220;5.134;2022-11-12T21:36:08;22.33;;;17.77;;
60372;SDS011;46216;52.220;5.134;2022-11-12T21:38:34;22.85;;;17.08;;
60372;SDS011;46216;52.220;5.134;2022-11-12T21:41:06;26.75;;;20.02;;
60372;SDS011;46216;52.220;5.134;2022-11-12T21:43:37;25.63;;;18.13;;
60372;SDS011;46216;52.220;5.134;2022-11-12T21:46:07;25.17;;;18.98;;
60372;SDS011;46216;52.220;5.134;2022-11-12T21:48:33;25.10;;;20.17;;
60372;SDS011;46216;52.220;5.134;2022-11-12T21:51:06;25.90;;;19.95;;
60372;SDS011;46216;52.220;5.134;2022-11-12T21:53:35;26.98;;;19.27;;
60372;SDS011;46216;52.220;5.134;2022-11-12T21:56:07;27.42;;;20.58;;
60372;SDS011;46216;52.220;5.134;2022-11-12T21:58:35;27.40;;;20.30;;
60372;SDS011;46216;52.220;5.134;2022-11-12T22:01:11;27.35;;;19.58;;
60372;SDS011;46216;52.220;5.134;2022-11-12T22:03:37;24.85;;;18.75;;
60372;SDS011;46216;52.220;5.134;2022-11-12T22:06:03;27.13;;;20.38;;
60372;SDS011;46216;52.220;5.134;2022-11-12T22:08:28;25.30;;;18.77;;
60372;SDS011;46216;52.220;5.134;2022-11-12T22:11:01;24.63;;;19.95;;
60372;SDS011;46216;52.220;5.134;2022-11-12T22:13:27;29.02;;;20.23;;
60372;SDS011;46216;52.220;5.134;2022-11-12T22:15:53;26.98;;;20.08;;
60372;SDS011;46216;52.220;5.134;2022-11-12T22:18:18;27.80;;;20.15;;
60372;SDS011;46216;52.220;5.134;2022-11-12T22:20:53;27.33;;;21.20;;
60372;SDS011;46216;52.220;5.134;2022-11-12T22:23:22;28.08;;;21.13;;
60372;SDS011;46216;52.220;5.134;2022-11-12T22:25:48;26.75;;;19.70;;
60372;SDS011;46216;52.220;5.134;2022-11-12T22:28:14;25.88;;;19.13;;
60372;SDS011;46216;52.220;5.134;2022-11-12T22:30:40;26.38;;;19.17;;
60372;SDS011;46216;52.220;5.134;2022-11-12T22:33:05;25.05;;;17.33;;
60372;SDS011;46216;52.220;5.134;2022-11-12T22:35:31;26.88;;;18.00;;
60372;SDS011;46216;52.220;5.134;2022-11-12T22:37:56;21.27;;;17.05;;
60372;SDS011;46216;52.220;5.134;2022-11-12T22:40:22;21.70;;;17.20;;
60372;SDS011;46216;52.220;5.134;2022-11-12T22:42:47;23.17;;;16.50;;
60372;SDS011;46216;52.220;5.134;2022-11-12T22:45:12;20.80;;;15.90;;
60372;SDS011;46216;52.220;5.134;2022-11-12T22:47:38;20.10;;;16.17;;
60372;SDS011;46216;52.220;5.134;2022-11-12T22:50:03;24.65;;;17.20;;
60372;SDS011;46216;52.220;5.134;2022-11-12T22:52:29;21.13;;;17.25;;
60372;SDS011;46216;52.220;5.134;2022-11-12T22:54:54;22.67;;;16.88;;
60372;SDS011;46216;52.220;5.134;2022-11-12T22:57:19;25.80;;;17.98;;
60372;SDS011;46216;52.220;5.134;2022-11-12T22:59:44;25.60;;;18.00;;
60372;SDS011;46216;52.220;5.134;2022-11-12T23:02:10;26.05;;;19.35;;
60372;SDS011;46216;52.220;5.134;2022-11-12T23:04:35;25.20;;;18.42;;
60372;SDS011;46216;52.220;5.134;2022-11-12T23:07:00;26.83;;;19.15;;
60372;SDS011;46216;52.220;5.134;2022-11-12T23:09:26;26.83;;;18.77;;
60372;SDS011;46216;52.220;5.134;2022-11-12T23:11:51;26.05;;;18.42;;
60372;SDS011;46216;52.220;5.134;2022-11-12T23:14:16;25.30;;;19.30;;
60372;SDS011;46216;52.220;5.134;2022-11-12T23:16:42;27.08;;;19.83;;
60372;SDS011;46216;52.220;5.134;2022-11-12T23:19:07;29.42;;;21.30;;
60372;SDS011;46216;52.220;5.134;2022-11-12T23:21:32;33.63;;;22.58;;
60372;SDS011;46216;52.220;5.134;2022-11-12T23:23:58;28.13;;;21.80;;
60372;SDS011;46216;52.220;5.134;2022-11-12T23:26:25;30.27;;;21.83;;
60372;SDS011;46216;52.220;5.134;2022-11-12T23:28:52;29.95;;;21.27;;
60372;SDS011;46216;52.220;5.134;2022-11-12T23:31:19;26.52;;;20.30;;
60372;SDS011;46216;52.220;5.134;2022-11-12T23:33:47;27.80;;;20.95;;
60372;SDS011;46216;52.220;5.134;2022-11-12T23:36:14;27.85;;;20.85;;
60372;SDS011;46216;52.220;5.134;2022-11-12T23:38:40;29.20;;;21.17;;
60372;SDS011;46216;52.220;5.134;2022-11-12T23:41:08;29.90;;;21.55;;
60372;SDS011;46216;52.220;5.134;2022-11-12T23:43:34;33.03;;;23.45;;
60372;SDS011;46216;52.220;5.134;2022-11-12T23:46:00;31.95;;;23.65;;
60372;SDS011;46216;52.220;5.134;2022-11-12T23:48:25;33.05;;;24.15;;
60372;SDS011;46216;52.220;5.134;2022-11-12T23:50:57;32.88;;;23.35;;
60372;SDS011;46216;52.220;5.134;2022-11-12T23:53:29;32.63;;;24.48;;
60372;SDS011;46216;52.220;5.134;2022-11-12T23:55:57;33.17;;;23.67;;
60372;SDS011;46216;52.220;5.134;2022-11-12T23:58:22;34.00;;;23.95;;
